Time;durP1;ratioP1;P1;durP2;ratioP2;P2;SDS_P1;SDS_P2;PMS_P1;PMS_P2;Temp;Humidity;BMP_temperature;BMP_pressure;BME280_temperature;BME280_humidity;BME280_pressure;Samples;Min_cycle;Max_cycle;Signal;HPM_P1;HPM_P2
2022/09/14 00:00:06;;;;;;;10.87;9.20;;;18.90;99.90;;;;;;10356655;28;20781;-76
2022/09/14 00:05:07;;;;;;;11.50;9.33;;;18.90;99.90;;;;;;10414705;28;20976;-75
2022/09/14 00:10:08;;;;;;;14.27;11.17;;;18.90;99.90;;;;;;10398400;28;20269;-76
2022/09/14 00:15:09;;;;;;;13.33;11.53;;;18.80;99.90;;;;;;10393321;28;20220;-75
2022/09/14 00:20:12;;;;;;;13.23;10.90;;;18.70;99.90;;;;;;10405719;28;20187;-74
2022/09/14 00:25:17;;;;;;;12.67;10.80;;;18.60;99.90;;;;;;10392925;28;20190;-76
2022/09/14 00:30:18;;;;;;;12.30;11.10;;;18.50;99.90;;;;;;10402554;28;20185;-77
2022/09/14 00:35:19;;;;;;;12.27;10.83;;;18.50;99.90;;;;;;10400083;28;20221;-78
2022/09/14 00:40:19;;;;;;;11.20;10.10;;;18.50;99.90;;;;;;10395589;28;20187;-77
2022/09/14 00:45:21;;;;;;;12.00;10.90;;;18.50;99.90;;;;;;10411556;28;20243;-77
2022/09/14 00:50:22;;;;;;;13.33;11.90;;;18.50;99.90;;;;;;10395665;28;20596;-77
2022/09/14 00:55:23;;;;;;;13.27;11.13;;;18.50;99.90;;;;;;10390335;28;20208;-76
2022/09/14 01:00:28;;;;;;;15.80;11.67;;;18.50;99.90;;;;;;10403875;28;20221;-78
2022/09/14 01:05:46;;;;;;;12.67;10.13;;;18.50;99.90;;;;;;10388036;28;20221;-76
2022/09/14 01:11:10;;;;;;;13.07;11.63;;;18.40;99.90;;;;;;10413608;28;20310;-76
2022/09/14 01:16:49;;;;;;;11.37;10.03;;;18.30;99.90;;;;;;10394408;28;20776;-75
2022/09/14 01:21:54;;;;;;;11.30;10.03;;;18.30;99.90;;;;;;10391357;28;20280;-75
2022/09/14 01:26:58;;;;;;;15.43;10.77;;;18.30;99.90;;;;;;10386765;28;20243;-75
2022/09/14 01:32:09;;;;;;;15.03;11.03;;;18.30;99.90;;;;;;10402684;28;20284;-75
2022/09/14 01:37:38;;;;;;;11.63;10.43;;;18.20;99.90;;;;;;10402350;28;20255;-73
2022/09/14 01:42:44;;;;;;;14.40;10.53;;;18.20;99.90;;;;;;10398281;28;20597;-74
2022/09/14 01:47:52;;;;;;;12.47;9.70;;;18.20;99.90;;;;;;10400528;28;20215;-74
2022/09/14 01:52:59;;;;;;;12.07;9.83;;;18.00;99.90;;;;;;10418734;28;20634;-76
2022/09/14 01:58:24;;;;;;;10.47;9.37;;;18.00;99.90;;;;;;10399647;28;20315;-75
2022/09/14 02:03:32;;;;;;;11.63;10.40;;;18.00;99.90;;;;;;10402622;28;20717;-76
2022/09/14 02:08:33;;;;;;;11.93;9.93;;;18.10;99.90;;;;;;10401687;28;20227;-76
2022/09/14 02:13:34;;;;;;;10.67;9.60;;;18.10;99.90;;;;;;10402045;28;20784;-75
2022/09/14 02:18:36;;;;;;;11.80;9.70;;;18.00;99.90;;;;;;10410358;28;20276;-75
2022/09/14 02:23:37;;;;;;;11.40;10.00;;;17.90;99.90;;;;;;10401217;28;20264;-75
2022/09/14 02:28:37;;;;;;;10.03;9.13;;;17.90;99.90;;;;;;10413052;28;20356;-75
2022/09/14 02:33:53;;;;;;;9.20;8.37;;;17.90;99.90;;;;;;10394802;28;20314;-75
2022/09/14 02:39:44;;;;;;;9.77;8.77;;;17.90;99.90;;;;;;10393296;28;20217;-74
2022/09/14 02:45:06;;;;;;;9.83;8.67;;;18.00;99.90;;;;;;10382192;28;20283;-74
2022/09/14 02:50:33;;;;;;;9.20;8.23;;;17.90;99.90;;;;;;10402929;28;20217;-76
2022/09/14 02:55:39;;;;;;;10.80;9.23;;;18.00;99.90;;;;;;10398320;28;20257;-78
2022/09/14 03:00:42;;;;;;;10.67;8.60;;;17.90;99.90;;;;;;10392226;28;20217;-73
2022/09/14 03:05:43;;;;;;;12.27;9.10;;;17.90;99.90;;;;;;10398775;28;20230;-74
2022/09/14 03:10:44;;;;;;;10.43;8.80;;;17.90;99.90;;;;;;10407074;28;20300;-74
2022/09/14 03:15:45;;;;;;;13.83;10.07;;;17.90;99.90;;;;;;10408667;28;20321;-74
2022/09/14 03:20:45;;;;;;;10.10;9.00;;;17.90;99.90;;;;;;10398783;28;20214;-74
2022/09/14 03:25:46;;;;;;;10.47;9.37;;;17.90;99.90;;;;;;10404729;28;20223;-73
2022/09/14 03:30:47;;;;;;;11.43;9.13;;;18.00;99.90;;;;;;10399421;28;20293;-75
2022/09/14 03:35:47;;;;;;;10.00;8.93;;;18.00;99.90;;;;;;10397848;28;20226;-74
2022/09/14 03:40:48;;;;;;;8.27;7.33;;;18.00;99.90;;;;;;10398628;28;20216;-75
2022/09/14 03:45:48;;;;;;;8.33;7.50;;;18.00;99.90;;;;;;10410978;28;20766;-76
2022/09/14 03:50:49;;;;;;;9.50;8.13;;;18.00;99.90;;;;;;10404509;28;20233;-74
2022/09/14 03:55:50;;;;;;;11.03;9.27;;;18.00;99.90;;;;;;10397261;28;20603;-74
2022/09/14 04:00:50;;;;;;;11.57;10.30;;;18.00;99.90;;;;;;10389294;28;20222;-77
2022/09/14 04:05:55;;;;;;;10.70;9.20;;;17.90;99.90;;;;;;10404320;28;20225;-75
2022/09/14 04:10:56;;;;;;;10.67;9.57;;;17.80;99.90;;;;;;10402733;28;20217;-76
2022/09/14 04:15:58;;;;;;;11.87;10.37;;;17.70;99.90;;;;;;10397708;28;20230;-76
2022/09/14 04:21:01;;;;;;;14.67;10.50;;;17.70;99.90;;;;;;10394628;28;20253;-77
2022/09/14 04:26:11;;;;;;;12.67;10.23;;;17.60;99.90;;;;;;10395251;28;20221;-77
2022/09/14 04:31:12;;;;;;;12.10;10.23;;;17.50;99.90;;;;;;10404460;28;20603;-77
2022/09/14 04:36:15;;;;;;;11.33;10.10;;;17.50;99.90;;;;;;10399364;28;20250;-78
2022/09/14 04:41:19;;;;;;;14.00;10.67;;;17.50;99.90;;;;;;10396894;28;20760;-77
2022/09/14 04:46:31;;;;;;;10.63;9.60;;;17.50;99.90;;;;;;10395435;28;20237;-71
2022/09/14 04:51:34;;;;;;;12.90;9.33;;;17.40;99.90;;;;;;10401635;28;20222;-68
2022/09/14 04:56:35;;;;;;;13.57;10.43;;;17.30;99.90;;;;;;10403437;28;20303;-67
2022/09/14 05:01:39;;;;;;;12.40;11.10;;;17.40;99.90;;;;;;10388194;28;20224;-70
2022/09/14 05:06:41;;;;;;;12.80;11.40;;;17.40;99.90;;;;;;10381859;28;20311;-70
2022/09/14 05:11:42;;;;;;;12.30;10.97;;;17.40;99.90;;;;;;10397461;28;20220;-70
2022/09/14 05:16:43;;;;;;;11.20;9.30;;;17.40;99.90;;;;;;10402679;28;20237;-70
2022/09/14 05:21:44;;;;;;;9.97;8.97;;;17.40;99.90;;;;;;10396621;28;20718;-71
2022/09/14 05:26:46;;;;;;;8.53;6.60;;;17.40;99.90;;;;;;10397150;28;20253;-71
2022/09/14 05:31:46;;;;;;;7.23;6.40;;;17.40;99.90;;;;;;10406672;28;20228;-71
2022/09/14 05:36:47;;;;;;;6.87;5.80;;;17.50;99.90;;;;;;10399288;28;20229;-71
2022/09/14 05:41:51;;;;;;;6.93;5.70;;;17.50;99.90;;;;;;10399792;28;20213;-72
2022/09/14 05:46:52;;;;;;;5.17;4.67;;;17.50;99.90;;;;;;10392488;28;20275;-72
2022/09/14 05:51:52;;;;;;;6.80;5.40;;;17.60;99.90;;;;;;10404489;28;20249;-72
2022/09/14 05:56:53;;;;;;;6.00;5.40;;;17.60;99.90;;;;;;10389184;28;20754;-76
2022/09/14 06:01:54;;;;;;;7.27;4.97;;;17.60;99.90;;;;;;10402245;28;20638;-77
2022/09/14 06:06:57;;;;;;;5.13;4.00;;;17.70;99.90;;;;;;10419213;28;20321;-75
2022/09/14 06:11:57;;;;;;;7.70;4.20;;;17.70;99.90;;;;;;10398156;28;20287;-76
2022/09/14 06:16:58;;;;;;;5.30;4.13;;;17.80;99.90;;;;;;10400294;28;20230;-76
2022/09/14 06:21:59;;;;;;;5.20;3.90;;;17.80;99.90;;;;;;10393378;28;20596;-75
2022/09/14 06:27:00;;;;;;;7.43;4.30;;;17.80;99.90;;;;;;10402197;28;20349;-76
2022/09/14 06:32:01;;;;;;;4.43;3.67;;;17.80;99.90;;;;;;10387238;28;20597;-76
2022/09/14 06:37:02;;;;;;;6.23;4.03;;;17.90;99.90;;;;;;10388482;28;20235;-76
2022/09/14 06:42:02;;;;;;;6.67;5.90;;;18.00;99.90;;;;;;10407426;28;20250;-77
2022/09/14 06:47:16;;;;;;;5.07;3.83;;;18.10;99.90;;;;;;10404756;28;20241;-77
2022/09/14 06:52:17;;;;;;;5.30;3.63;;;18.20;99.90;;;;;;10395613;28;20222;-77
2022/09/14 06:57:18;;;;;;;4.07;3.07;;;18.30;99.90;;;;;;10403102;28;20230;-77
2022/09/14 07:02:19;;;;;;;4.00;3.20;;;18.40;99.90;;;;;;10408577;28;20217;-76
2022/09/14 07:07:19;;;;;;;4.43;2.83;;;18.40;99.90;;;;;;10402641;28;20227;-75
2022/09/14 07:12:20;;;;;;;4.40;3.00;;;18.50;99.90;;;;;;10404299;28;20219;-77
2022/09/14 07:17:20;;;;;;;3.70;3.23;;;18.60;99.90;;;;;;10399262;28;20221;-75
2022/09/14 07:22:21;;;;;;;3.93;3.20;;;18.70;99.90;;;;;;10403510;28;20213;-77
2022/09/14 07:27:22;;;;;;;4.10;3.30;;;18.90;99.90;;;;;;10399222;28;20213;-76
2022/09/14 07:32:22;;;;;;;5.50;3.30;;;19.10;99.90;;;;;;10405099;28;20209;-76
2022/09/14 07:37:23;;;;;;;4.17;3.17;;;19.20;99.90;;;;;;10403000;28;20261;-77
2022/09/14 07:42:24;;;;;;;4.47;2.67;;;19.40;99.90;;;;;;10401145;28;20253;-78
2022/09/14 07:47:24;;;;;;;5.03;2.53;;;19.80;99.90;;;;;;10399986;28;20311;-77
2022/09/14 07:52:25;;;;;;;4.07;2.60;;;20.10;99.90;;;;;;10399766;28;20220;-77
2022/09/14 07:57:26;;;;;;;3.77;2.50;;;20.40;99.90;;;;;;10395780;28;20238;-77
2022/09/14 08:02:27;;;;;;;4.90;2.43;;;20.80;99.90;;;;;;10405479;28;20812;-77
2022/09/14 08:07:28;;;;;;;4.97;2.23;;;21.00;99.90;;;;;;10395248;28;20223;-78
2022/09/14 08:12:29;;;;;;;3.70;2.40;;;21.20;99.90;;;;;;10402010;28;20220;-76
2022/09/14 08:17:36;;;;;;;5.10;2.33;;;21.50;99.90;;;;;;10410069;28;20255;-77
2022/09/14 08:22:36;;;;;;;3.53;2.10;;;21.90;99.90;;;;;;10412783;28;20223;-79
2022/09/14 08:27:38;;;;;;;5.77;2.77;;;22.10;99.90;;;;;;10400113;28;20696;-78
2022/09/14 08:32:49;;;;;;;4.23;3.27;;;22.10;99.90;;;;;;10408937;28;20225;-77
2022/09/14 08:37:50;;;;;;;4.37;3.50;;;22.20;99.90;;;;;;10405840;28;20235;-76
2022/09/14 08:42:55;;;;;;;5.27;3.60;;;22.20;99.90;;;;;;10395912;28;20220;-77
2022/09/14 08:47:57;;;;;;;5.43;3.57;;;21.90;99.90;;;;;;10385662;28;20246;-77
2022/09/14 08:52:58;;;;;;;8.60;4.93;;;21.60;99.90;;;;;;10391281;28;20219;-77
2022/09/14 08:58:30;;;;;;;5.73;5.23;;;21.10;99.90;;;;;;10396572;28;20698;-75
2022/09/14 09:03:57;;;;;;;9.03;8.20;;;20.70;99.90;;;;;;10404813;28;20268;-77
2022/09/14 09:09:11;;;;;;;11.00;8.50;;;20.50;99.90;;;;;;10390658;28;20569;-75
2022/09/14 09:14:38;;;;;;;10.63;8.03;;;20.40;99.90;;;;;;10390843;28;20655;-75
2022/09/14 09:20:08;;;;;;;8.60;7.80;;;20.50;99.90;;;;;;10405310;28;20216;-76
2022/09/14 09:25:26;;;;;;;9.00;7.60;;;20.70;99.90;;;;;;10389872;28;20226;-76
2022/09/14 09:30:28;;;;;;;10.50;7.53;;;20.60;99.90;;;;;;10414014;28;20320;-77
2022/09/14 09:35:29;;;;;;;10.60;7.03;;;20.60;99.90;;;;;;10393024;28;20949;-76
2022/09/14 09:40:36;;;;;;;8.80;7.87;;;20.60;99.90;;;;;;10396949;28;20223;-76
2022/09/14 09:45:59;;;;;;;8.90;8.10;;;20.60;99.90;;;;;;10413607;28;20297;-78
2022/09/14 09:51:19;;;;;;;10.73;8.40;;;20.60;99.90;;;;;;10408888;28;20273;-78
2022/09/14 09:56:24;;;;;;;9.73;8.63;;;20.70;99.90;;;;;;10397793;28;20231;-78
2022/09/14 10:01:33;;;;;;;10.00;7.70;;;20.90;99.90;;;;;;10394971;28;20690;-77
2022/09/14 10:06:43;;;;;;;7.03;6.33;;;21.50;99.90;;;;;;10391723;28;20220;-78
2022/09/14 10:11:46;;;;;;;7.57;6.47;;;22.40;99.90;;;;;;10386684;28;20372;-77
2022/09/14 10:16:47;;;;;;;9.10;7.43;;;22.90;99.90;;;;;;10395032;28;20252;-78
2022/09/14 10:22:04;;;;;;;6.40;5.80;;;23.10;99.90;;;;;;10401554;28;20698;-74
2022/09/14 10:27:40;;;;;;;9.10;7.03;;;23.40;99.90;;;;;;10393959;28;20216;-75
2022/09/14 10:33:05;;;;;;;7.10;6.23;;;23.80;99.90;;;;;;10420482;28;20303;-77
2022/09/14 10:38:27;;;;;;;8.33;6.40;;;24.50;99.90;;;;;;10395245;28;20225;-77
2022/09/14 10:43:37;;;;;;;8.63;7.20;;;24.40;99.90;;;;;;10396032;28;20225;-77
2022/09/14 10:49:09;;;;;;;7.87;7.17;;;24.20;99.90;;;;;;10407923;28;20213;-77
2022/09/14 10:54:18;;;;;;;11.17;8.70;;;24.30;99.90;;;;;;10412508;28;20248;-77
2022/09/14 10:59:38;;;;;;;7.97;6.60;;;25.00;99.90;;;;;;10398818;28;20224;-76
2022/09/14 11:04:44;;;;;;;11.03;8.47;;;25.40;99.90;;;;;;10405365;28;20227;-78
2022/09/14 11:10:14;;;;;;;11.53;9.20;;;25.30;99.90;;;;;;10407505;28;20220;-78
2022/09/14 11:15:51;;;;;;;9.03;8.00;;;24.60;99.90;;;;;;10408646;28;20212;-77
2022/09/14 11:21:28;;;;;;;9.17;8.27;;;24.10;99.90;;;;;;10405729;28;20223;-76
2022/09/14 11:26:35;;;;;;;12.93;9.87;;;23.90;99.90;;;;;;10410980;28;20207;-77
2022/09/14 11:31:45;;;;;;;10.27;8.77;;;23.80;99.90;;;;;;10411618;28;20583;-77
2022/09/14 11:36:59;;;;;;;8.87;7.97;;;23.70;99.90;;;;;;10413981;28;20229;-78
2022/09/14 11:42:01;;;;;;;10.57;7.33;;;24.10;99.90;;;;;;10407764;28;20247;-77
2022/09/14 11:47:11;;;;;;;8.47;7.47;;;24.50;99.90;;;;;;10418119;28;20711;-77
2022/09/14 11:52:19;;;;;;;9.00;7.90;;;24.50;99.90;;;;;;10413023;28;20326;-77
2022/09/14 11:57:27;;;;;;;8.17;7.03;;;24.30;99.90;;;;;;10411339;28;20243;-78
2022/09/14 12:02:28;;;;;;;10.50;8.00;;;24.10;99.90;;;;;;10409434;28;20216;-78
2022/09/14 12:07:59;;;;;;;12.50;8.13;;;23.90;99.90;;;;;;10411852;28;20220;-78
2022/09/14 12:13:05;;;;;;;8.87;7.77;;;24.00;99.90;;;;;;10396550;28;20219;-78
2022/09/14 12:18:06;;;;;;;6.80;6.10;;;24.20;99.90;;;;;;10412133;28;20260;-79
2022/09/14 12:23:24;;;;;;;11.03;8.63;;;24.50;99.90;;;;;;10411607;28;20243;-79
2022/09/14 12:28:38;;;;;;;10.73;8.07;;;24.70;99.90;;;;;;10407430;28;20334;-77
2022/09/14 12:33:40;;;;;;;10.10;7.40;;;24.50;99.90;;;;;;10410950;28;20318;-77
2022/09/14 12:39:02;;;;;;;7.40;6.30;;;24.10;99.90;;;;;;10409658;28;20329;-79
2022/09/14 12:44:23;;;;;;;11.33;8.70;;;23.90;99.90;;;;;;10405838;28;20227;-78
2022/09/14 12:49:29;;;;;;;8.63;7.60;;;23.60;99.90;;;;;;10412011;28;20228;-77
2022/09/14 12:54:50;;;;;;;9.73;7.67;;;23.40;99.90;;;;;;10411962;28;20309;-77
2022/09/14 13:00:21;;;;;;;8.50;7.23;;;23.30;99.90;;;;;;10409393;28;20224;-77
2022/09/14 13:05:27;;;;;;;8.20;6.47;;;23.20;99.90;;;;;;10402241;28;20235;-78
2022/09/14 13:10:33;;;;;;;10.23;7.67;;;23.30;99.90;;;;;;10414490;28;20227;-78
2022/09/14 13:15:38;;;;;;;15.43;11.17;;;23.20;99.90;;;;;;10408703;28;20227;-78
2022/09/14 13:20:49;;;;;;;15.83;11.17;;;23.00;99.90;;;;;;10410644;28;20238;-78
2022/09/14 13:25:50;;;;;;;18.03;13.30;;;22.30;99.90;;;;;;10405001;28;20220;-78
2022/09/14 13:30:55;;;;;;;17.60;14.20;;;21.80;99.90;;;;;;10411820;28;20227;-78
2022/09/14 13:35:59;;;;;;;14.77;11.63;;;21.70;99.90;;;;;;10411298;28;20238;-78
2022/09/14 13:41:10;;;;;;;17.07;13.97;;;21.60;99.90;;;;;;10411584;28;20223;-78
2022/09/14 13:46:13;;;;;;;17.57;13.37;;;21.50;99.90;;;;;;10411808;28;20224;-78
2022/09/14 13:51:14;;;;;;;14.87;12.20;;;21.50;99.90;;;;;;10420883;28;20257;-77
2022/09/14 13:56:19;;;;;;;11.77;10.33;;;21.70;99.90;;;;;;10414058;28;20281;-76
2022/09/14 14:01:25;;;;;;;15.07;12.80;;;21.80;99.90;;;;;;10417808;28;20230;-77
2022/09/14 14:06:31;;;;;;;12.73;11.43;;;21.60;99.90;;;;;;10418324;28;20222;-77
2022/09/14 14:11:44;;;;;;;16.03;12.13;;;21.60;99.90;;;;;;10417598;28;20231;-78
2022/09/14 14:17:12;;;;;;;15.47;12.40;;;21.60;99.90;;;;;;10412975;28;20269;-77
2022/09/14 14:22:13;;;;;;;12.43;10.77;;;21.60;99.90;;;;;;10416147;28;20701;-77
2022/09/14 14:27:32;;;;;;;19.77;14.83;;;21.60;99.90;;;;;;10417665;28;20307;-77
2022/09/14 14:32:33;;;;;;;14.13;11.30;;;21.80;99.90;;;;;;10417419;28;20223;-77
2022/09/14 14:37:33;;;;;;;14.07;12.27;;;21.80;99.90;;;;;;10416424;28;20231;-77
2022/09/14 14:42:34;;;;;;;14.77;11.33;;;21.70;99.90;;;;;;10432044;28;20235;-76
2022/09/14 14:47:35;;;;;;;17.13;14.23;;;21.70;99.90;;;;;;10417898;28;20771;-77
2022/09/14 14:52:36;;;;;;;12.50;11.13;;;21.70;99.90;;;;;;10415011;28;20318;-76
2022/09/14 14:57:37;;;;;;;12.00;10.70;;;21.80;99.90;;;;;;10416711;28;20276;-77
2022/09/14 15:02:41;;;;;;;12.20;10.90;;;22.00;99.90;;;;;;10415116;28;20229;-77
2022/09/14 15:07:42;;;;;;;15.13;13.63;;;22.20;99.90;;;;;;10415712;28;20602;-78
2022/09/14 15:12:44;;;;;;;11.17;9.90;;;22.20;99.90;;;;;;10417512;28;20231;-76
2022/09/14 15:17:44;;;;;;;5.50;4.00;;;22.20;99.90;;;;;;10416020;28;20234;-77
2022/09/14 15:22:47;;;;;;;6.47;3.10;;;22.20;99.90;;;;;;10411744;28;20629;-76
2022/09/14 15:27:48;;;;;;;5.60;2.50;;;22.20;99.90;;;;;;10413553;28;20227;-76
2022/09/14 15:32:48;;;;;;;3.90;2.13;;;22.10;99.90;;;;;;10410270;28;20234;-78
2022/09/14 15:37:49;;;;;;;3.93;2.10;;;22.00;99.90;;;;;;10403823;28;20290;-78
2022/09/14 15:42:50;;;;;;;3.73;2.00;;;22.00;99.90;;;;;;10402691;28;20282;-77
2022/09/14 15:47:50;;;;;;;3.87;1.67;;;21.90;99.90;;;;;;10409330;28;20687;-77
2022/09/14 15:52:51;;;;;;;4.27;1.50;;;21.90;99.90;;;;;;10412178;28;20225;-78
2022/09/14 15:57:51;;;;;;;4.63;2.00;;;21.80;99.90;;;;;;10396327;28;20223;-77
2022/09/14 16:02:52;;;;;;;4.03;1.73;;;21.70;99.90;;;;;;10414277;28;20310;-77
2022/09/14 16:07:55;;;;;;;4.17;1.57;;;21.60;99.90;;;;;;10403832;28;20226;-77
2022/09/14 16:12:55;;;;;;;7.10;1.80;;;21.40;99.90;;;;;;10398164;28;20218;-78
2022/09/14 16:17:56;;;;;;;6.70;1.83;;;21.40;99.90;;;;;;10395895;28;20301;-77
2022/09/14 16:22:56;;;;;;;6.13;1.87;;;21.50;99.90;;;;;;10401380;28;20377;-76
2022/09/14 16:27:57;;;;;;;4.30;1.80;;;21.40;99.90;;;;;;10397777;28;20645;-76
2022/09/14 16:32:58;;;;;;;7.23;2.17;;;21.40;99.90;;;;;;10406685;28;20229;-76
2022/09/14 16:37:58;;;;;;;3.57;1.90;;;21.30;99.90;;;;;;10389034;28;20239;-74
2022/09/14 16:42:59;;;;;;;2.60;1.73;;;21.30;99.90;;;;;;10399438;28;20603;-73
2022/09/14 16:48:00;;;;;;;6.23;2.80;;;21.30;99.90;;;;;;10395100;28;20231;-76
2022/09/14 16:53:01;;;;;;;3.67;2.10;;;21.20;99.90;;;;;;10395933;28;20235;-75
2022/09/14 16:58:01;;;;;;;7.30;3.13;;;21.10;99.90;;;;;;10398918;28;21350;-76
2022/09/14 17:03:02;;;;;;;14.10;8.87;;;21.00;99.90;;;;;;10395249;28;20255;-76
2022/09/14 17:08:03;;;;;;;11.67;8.73;;;20.90;99.90;;;;;;10403103;28;20229;-73
2022/09/14 17:13:04;;;;;;;9.33;5.77;;;20.80;99.90;;;;;;10400355;28;20411;-73
2022/09/14 17:18:05;;;;;;;9.87;4.70;;;20.80;99.90;;;;;;10401446;28;20218;-75
2022/09/14 17:23:05;;;;;;;5.47;3.77;;;20.60;99.90;;;;;;10392102;28;20695;-76
2022/09/14 17:28:06;;;;;;;8.43;3.87;;;20.50;99.90;;;;;;10393517;28;20221;-76
2022/09/14 17:33:07;;;;;;;8.00;4.17;;;20.30;99.90;;;;;;10392877;28;20292;-75
2022/09/14 17:38:08;;;;;;;8.20;4.07;;;20.20;99.90;;;;;;10394411;28;20234;-76
2022/09/14 17:43:10;;;;;;;4.03;3.13;;;20.10;99.90;;;;;;10414672;28;20230;-75
2022/09/14 17:48:11;;;;;;;7.10;3.00;;;20.00;99.90;;;;;;10389226;28;20222;-74
2022/09/14 17:53:12;;;;;;;6.83;3.50;;;19.90;99.90;;;;;;10418004;28;20239;-74
2022/09/14 17:58:13;;;;;;;6.53;2.60;;;19.80;99.90;;;;;;10408352;28;20599;-74
2022/09/14 18:03:14;;;;;;;8.00;3.00;;;19.80;99.90;;;;;;10405233;28;20249;-75
2022/09/14 18:08:14;;;;;;;7.80;3.43;;;19.70;99.90;;;;;;10419112;28;20274;-74
2022/09/14 18:13:15;;;;;;;7.77;5.13;;;19.70;99.90;;;;;;10402604;28;20244;-74
2022/09/14 18:18:16;;;;;;;7.27;3.43;;;19.70;99.90;;;;;;10399813;28;20230;-75
2022/09/14 18:23:17;;;;;;;8.67;4.20;;;19.70;99.90;;;;;;10392328;28;20241;-75
2022/09/14 18:28:17;;;;;;;6.17;3.30;;;19.60;99.90;;;;;;10401534;28;20214;-75
2022/09/14 18:33:18;;;;;;;3.30;2.93;;;19.50;99.90;;;;;;10405718;28;20700;-75
2022/09/14 18:38:18;;;;;;;9.50;4.70;;;19.40;99.90;;;;;;10408408;28;20225;-74
2022/09/14 18:43:19;;;;;;;8.17;4.00;;;19.30;99.90;;;;;;10427856;28;20230;-74
2022/09/14 18:48:20;;;;;;;8.23;3.97;;;19.20;99.90;;;;;;10402889;28;20252;-74
2022/09/14 18:53:20;;;;;;;9.03;3.63;;;19.20;99.90;;;;;;10399578;28;20218;-75
2022/09/14 18:58:21;;;;;;;7.60;4.13;;;19.20;99.90;;;;;;10395681;28;20273;-75
2022/09/14 19:03:22;;;;;;;6.53;3.50;;;19.20;99.90;;;;;;10409059;28;20222;-75
2022/09/14 19:08:22;;;;;;;5.00;2.93;;;19.10;99.90;;;;;;10406112;28;20214;-74
2022/09/14 19:13:23;;;;;;;4.43;3.10;;;19.00;99.90;;;;;;10409987;28;20658;-75
2022/09/14 19:18:24;;;;;;;4.57;2.60;;;18.90;99.90;;;;;;10400456;28;20237;-75
2022/09/14 19:23:24;;;;;;;5.20;3.37;;;18.80;99.90;;;;;;10396685;28;20342;-75
2022/09/14 19:28:25;;;;;;;4.90;2.80;;;18.80;99.90;;;;;;10399634;28;20672;-75
2022/09/14 19:33:25;;;;;;;7.50;3.03;;;18.70;99.90;;;;;;10373660;28;20226;-75
2022/09/14 19:38:28;;;;;;;5.23;2.93;;;18.60;99.90;;;;;;10383873;28;20957;-75
2022/09/14 19:43:30;;;;;;;5.93;3.03;;;18.50;99.90;;;;;;10407926;28;20217;-74
2022/09/14 19:48:33;;;;;;;6.53;2.80;;;18.50;99.90;;;;;;10402620;28;20218;-74
2022/09/14 19:53:35;;;;;;;3.17;2.57;;;18.40;99.90;;;;;;10403148;28;20252;-74
2022/09/14 19:58:41;;;;;;;5.13;2.37;;;18.30;99.90;;;;;;10404231;28;20670;-75
2022/09/14 20:03:46;;;;;;;6.33;2.30;;;18.30;99.90;;;;;;10397609;28;20232;-74
2022/09/14 20:08:54;;;;;;;3.67;2.70;;;18.40;99.90;;;;;;10389430;28;20279;-74
2022/09/14 20:13:57;;;;;;;2.90;2.17;;;18.40;99.90;;;;;;10387770;28;20232;-73
2022/09/14 20:19:01;;;;;;;9.33;2.53;;;18.40;99.90;;;;;;10403571;28;20228;-72
2022/09/14 20:24:04;;;;;;;4.17;2.80;;;18.30;99.90;;;;;;10390299;28;20225;-73
2022/09/14 20:29:04;;;;;;;6.53;2.50;;;18.30;99.90;;;;;;10394348;28;20232;-75
2022/09/14 20:34:05;;;;;;;4.53;2.30;;;18.30;99.90;;;;;;10413217;28;20563;-75
2022/09/14 20:39:06;;;;;;;4.50;2.70;;;18.30;99.90;;;;;;10409217;28;20213;-74
2022/09/14 20:44:07;;;;;;;4.03;2.23;;;18.30;99.90;;;;;;10388214;28;20209;-76
2022/09/14 20:49:13;;;;;;;3.87;2.43;;;18.20;99.90;;;;;;10403050;28;20346;-75
2022/09/14 20:54:16;;;;;;;2.87;2.23;;;18.10;99.90;;;;;;10402279;28;20222;-75
2022/09/14 20:59:24;;;;;;;3.53;2.77;;;18.10;99.90;;;;;;10403252;28;20221;-76
2022/09/14 21:04:25;;;;;;;4.93;2.57;;;18.10;99.90;;;;;;10410366;28;20725;-76
2022/09/14 21:09:25;;;;;;;8.37;2.63;;;18.10;99.90;;;;;;10410364;28;20216;-75
2022/09/14 21:14:27;;;;;;;5.70;2.73;;;18.10;99.90;;;;;;10409386;28;20597;-73
2022/09/14 21:19:30;;;;;;;3.97;2.73;;;18.10;99.90;;;;;;10404428;28;20820;-74
2022/09/14 21:24:33;;;;;;;3.70;2.40;;;18.10;99.90;;;;;;10392575;28;20312;-74
2022/09/14 21:29:34;;;;;;;6.80;2.90;;;18.10;99.90;;;;;;10399464;28;20222;-74
2022/09/14 21:34:34;;;;;;;6.07;2.60;;;18.10;99.90;;;;;;10405361;28;20274;-74
2022/09/14 21:39:36;;;;;;;5.23;2.80;;;18.10;99.90;;;;;;10401857;28;20593;-74
2022/09/14 21:44:37;;;;;;;7.30;3.00;;;18.10;99.90;;;;;;10398144;28;20783;-74
2022/09/14 21:49:37;;;;;;;4.67;2.67;;;18.10;99.90;;;;;;10401177;28;20339;-74
2022/09/14 21:54:39;;;;;;;6.90;2.97;;;18.10;99.90;;;;;;10417482;28;20630;-75
2022/09/14 21:59:39;;;;;;;5.83;2.97;;;18.00;99.90;;;;;;10391990;28;20249;-75
2022/09/14 22:04:43;;;;;;;7.17;3.77;;;18.00;99.90;;;;;;10410610;28;20244;-75
2022/09/14 22:09:44;;;;;;;5.73;3.20;;;18.00;99.90;;;;;;10400643;28;20213;-75
2022/09/14 22:14:44;;;;;;;5.10;2.80;;;18.00;99.90;;;;;;10411429;28;20223;-74
2022/09/14 22:19:45;;;;;;;4.87;2.97;;;18.10;99.90;;;;;;10402298;28;20213;-75
2022/09/14 22:24:46;;;;;;;6.37;3.27;;;18.10;99.90;;;;;;10401112;28;20218;-74
2022/09/14 22:29:46;;;;;;;4.53;3.03;;;18.10;99.90;;;;;;10415055;28;20281;-75
2022/09/14 22:34:49;;;;;;;4.57;3.07;;;18.10;99.90;;;;;;10405415;28;20723;-76
2022/09/14 22:39:50;;;;;;;3.23;2.83;;;18.20;99.90;;;;;;10419131;28;20746;-74
2022/09/14 22:44:50;;;;;;;7.37;2.90;;;18.20;99.90;;;;;;10408195;28;20302;-75
2022/09/14 22:49:51;;;;;;;5.97;3.20;;;18.20;99.90;;;;;;10414351;28;20292;-73
2022/09/14 22:54:52;;;;;;;4.60;3.10;;;18.20;99.90;;;;;;10405369;28;20238;-72
2022/09/14 22:59:52;;;;;;;7.63;3.20;;;18.20;99.90;;;;;;10411134;28;20223;-72
2022/09/14 23:04:54;;;;;;;6.23;3.30;;;18.20;99.90;;;;;;10366644;28;20225;-74
2022/09/14 23:09:55;;;;;;;8.23;4.10;;;18.20;99.90;;;;;;10398527;28;20233;-74
2022/09/14 23:14:55;;;;;;;3.70;3.40;;;18.20;99.90;;;;;;10410822;28;20219;-74
2022/09/14 23:19:56;;;;;;;4.20;3.50;;;18.10;99.90;;;;;;10401549;28;20243;-74
2022/09/14 23:24:57;;;;;;;4.47;3.33;;;18.20;99.90;;;;;;10402976;28;20303;-74
2022/09/14 23:29:58;;;;;;;7.33;3.97;;;18.10;99.90;;;;;;10406021;28;20216;-73
2022/09/14 23:34:59;;;;;;;7.00;4.27;;;18.10;99.90;;;;;;10408296;28;20220;-75
2022/09/14 23:39:59;;;;;;;6.20;4.30;;;18.10;99.90;;;;;;10405213;28;20222;-72
2022/09/14 23:45:00;;;;;;;5.17;4.40;;;18.10;99.90;;;;;;10400334;28;20231;-72
2022/09/14 23:50:00;;;;;;;5.13;4.00;;;18.00;99.90;;;;;;10399405;28;20699;-72
2022/09/14 23:55:01;;;;;;;5.60;4.83;;;18.10;99.90;;;;;;10420094;28;20701;-72
